createdAt,value
2022-09-01T00:00:33.547Z,3.20
2022-09-01T00:03:38.316Z,4.10
2022-09-01T00:06:40.282Z,3.40
2022-09-01T00:09:41.881Z,3.00
2022-09-01T00:12:44.850Z,3.00
2022-09-01T00:15:46.510Z,3.20
2022-09-01T00:18:51.874Z,3.60
2022-09-01T00:21:53.446Z,3.00
2022-09-01T00:24:56.060Z,3.40
2022-09-01T00:27:59.730Z,3.00
2022-09-01T00:31:02.382Z,3.20
2022-09-01T00:34:04.632Z,3.40
2022-09-01T00:40:11.087Z,2.60
2022-09-01T00:43:20.550Z,3.10
2022-09-01T00:46:29.441Z,2.90
2022-09-01T00:49:37.599Z,2.40
2022-09-01T00:52:44.643Z,2.70
2022-09-01T00:55:46.229Z,2.20
2022-09-01T00:58:48.361Z,2.50
2022-09-01T01:01:50.323Z,3.00
2022-09-01T01:04:55.395Z,2.80
2022-09-01T01:07:57.063Z,3.20
2022-09-01T01:11:04.134Z,2.80
2022-09-01T01:14:11.524Z,3.20
2022-09-01T01:17:13.109Z,2.80
2022-09-01T01:20:37.443Z,3.00
2022-09-01T01:23:57.194Z,3.30
2022-09-01T01:26:59.539Z,3.00
2022-09-01T01:30:07.286Z,2.70
2022-09-01T01:33:11.599Z,2.50
2022-09-01T01:36:15.976Z,2.60
2022-09-01T01:39:22.073Z,2.40
2022-09-01T01:42:24.532Z,2.10
2022-09-01T01:45:27.058Z,2.00
2022-09-01T01:48:33.870Z,2.50
2022-09-01T01:51:36.410Z,2.50
2022-09-01T01:54:38.334Z,2.50
2022-09-01T01:57:41.135Z,2.40
2022-09-01T02:00:43.953Z,2.50
2022-09-01T02:03:45.615Z,2.20
2022-09-01T02:06:49.271Z,2.70
2022-09-01T02:09:51.675Z,2.30
2022-09-01T02:12:53.358Z,2.80
2022-09-01T02:15:57.572Z,3.00
2022-09-01T02:19:01.234Z,2.90
2022-09-01T02:22:02.995Z,2.40
2022-09-01T02:25:05.762Z,2.80
2022-09-01T02:28:09.516Z,3.00
2022-09-01T02:31:12.125Z,2.30
2022-09-01T02:34:14.304Z,2.70
2022-09-01T02:37:16.090Z,2.40
2022-09-01T02:40:17.881Z,2.90
2022-09-01T02:43:20.571Z,2.80
2022-09-01T02:46:22.891Z,2.70
2022-09-01T02:49:28.038Z,2.80
2022-09-01T02:52:34.903Z,2.80
2022-09-01T02:55:39.079Z,2.90
2022-09-01T02:58:46.233Z,3.40
2022-09-01T03:01:53.255Z,3.00
2022-09-01T03:04:55.297Z,3.00
2022-09-01T03:08:00.667Z,3.30
2022-09-01T03:11:02.376Z,3.20
2022-09-01T03:14:06.993Z,3.00
2022-09-01T03:17:08.595Z,3.10
2022-09-01T03:20:10.564Z,3.10
2022-09-01T03:23:19.491Z,3.50
2022-09-01T03:26:23.169Z,3.00
2022-09-01T03:29:24.888Z,2.80
2022-09-01T03:32:26.478Z,2.60
2022-09-01T03:35:31.262Z,2.80
2022-09-01T03:38:33.630Z,3.10
2022-09-01T03:41:37.418Z,2.60
2022-09-01T03:44:40.403Z,2.80
2022-09-01T03:47:42.810Z,2.90
2022-09-01T03:50:45.681Z,2.60
2022-09-01T03:53:48.382Z,2.50
2022-09-01T03:56:50.201Z,2.40
2022-09-01T03:59:53.607Z,2.80
2022-09-01T04:02:58.770Z,2.60
2022-09-01T04:06:01.795Z,2.70
2022-09-01T04:09:03.707Z,2.50
2022-09-01T04:12:08.369Z,2.80
2022-09-01T04:15:13.921Z,2.20
2022-09-01T04:18:20.860Z,2.20
2022-09-01T04:21:23.627Z,2.40
2022-09-01T04:24:30.399Z,2.40
2022-09-01T04:27:33.215Z,2.50
2022-09-01T04:30:36.206Z,2.30
2022-09-01T04:33:39.284Z,2.20
2022-09-01T04:36:44.190Z,2.10
2022-09-01T04:39:55.598Z,2.80
2022-09-01T04:42:57.961Z,2.30
2022-09-01T04:46:00.352Z,2.20
2022-09-01T04:49:07.538Z,2.00
2022-09-01T04:52:15.008Z,1.90
2022-09-01T04:55:16.880Z,1.90
2022-09-01T04:58:19.121Z,2.00
2022-09-01T05:04:33.163Z,2.10
2022-09-01T05:07:37.336Z,2.60
2022-09-01T05:10:41.613Z,2.10
2022-09-01T05:13:56.965Z,2.10
2022-09-01T05:16:58.574Z,2.10
2022-09-01T05:20:01.641Z,2.10
2022-09-01T05:23:04.465Z,2.00
2022-09-01T05:26:16.491Z,2.00
2022-09-01T05:29:18.433Z,2.20
2022-09-01T05:32:25.329Z,2.00
2022-09-01T05:35:32.917Z,2.30
2022-09-01T05:38:34.949Z,1.80
2022-09-01T05:41:36.631Z,2.50
2022-09-01T05:44:43.556Z,1.90
2022-09-01T05:47:46.087Z,1.60
2022-09-01T05:53:52.189Z,1.70
2022-09-01T05:57:08.205Z,1.80
2022-09-01T06:00:20.493Z,2.00
2022-09-01T06:03:24.245Z,1.80
2022-09-01T06:06:28.170Z,1.70
2022-09-01T06:09:29.978Z,2.00
2022-09-01T06:12:33.786Z,1.70
2022-09-01T06:15:40.744Z,1.90
2022-09-01T06:18:43.172Z,1.60
2022-09-01T06:21:44.948Z,1.30
2022-09-01T06:24:53.312Z,1.70
2022-09-01T06:27:58.108Z,1.50
2022-09-01T06:31:06.202Z,1.30
2022-09-01T06:34:10.072Z,1.70
2022-09-01T06:37:12.657Z,1.40
2022-09-01T06:40:17.297Z,1.40
2022-09-01T06:43:19.699Z,1.30
2022-09-01T06:46:30.893Z,1.40
2022-09-01T06:49:36.367Z,1.70
2022-09-01T06:56:14.085Z,1.20
2022-09-01T06:59:17.361Z,1.20
2022-09-01T07:02:26.623Z,1.10
2022-09-01T07:18:44.849Z,0.80
2022-09-01T07:23:03.636Z,1.10
2022-09-01T07:26:02.892Z,1.00
2022-09-01T07:29:12.382Z,1.20
2022-09-01T07:35:39.387Z,1.10
2022-09-01T07:50:11.356Z,1.00
2022-09-01T07:53:01.351Z,1.00
2022-09-01T07:56:10.628Z,0.70
2022-09-01T07:59:17.764Z,0.60
2022-09-01T08:02:24.984Z,0.70
2022-09-01T08:08:30.463Z,0.50
2022-09-01T08:12:00.999Z,0.60
2022-09-01T08:18:17.477Z,0.60
2022-09-01T08:21:22.813Z,0.60
2022-09-01T08:24:37.421Z,0.60
2022-09-01T08:27:39.040Z,0.60
2022-09-01T08:30:42.249Z,0.50
2022-09-01T08:33:54.693Z,0.80
2022-09-01T08:36:56.282Z,0.70
2022-09-01T08:39:58.076Z,1.10
2022-09-01T08:43:25.173Z,0.90
2022-09-01T08:46:38.522Z,0.80
2022-09-01T08:49:45.078Z,1.30
2022-09-01T08:53:09.994Z,1.10
2022-09-01T08:56:13.095Z,0.70
2022-09-01T08:59:15.640Z,0.90
2022-09-01T09:03:19.855Z,1.00
2022-09-01T09:06:29.311Z,1.20
2022-09-01T09:09:53.994Z,0.90
2022-09-01T09:13:16.018Z,0.90
2022-09-01T09:16:25.700Z,1.10
2022-09-01T09:19:38.980Z,0.70
2022-09-01T09:22:42.481Z,0.70
2022-09-01T09:25:44.112Z,0.70
2022-09-01T09:28:49.394Z,1.00
2022-09-01T09:32:06.930Z,0.80
2022-09-01T09:35:32.468Z,0.90
2022-09-01T09:38:33.997Z,0.80
2022-09-01T09:41:39.829Z,0.90
2022-09-01T09:44:48.993Z,0.60
2022-09-01T09:47:51.951Z,0.80
2022-09-01T09:50:53.563Z,0.70
2022-09-01T09:54:14.366Z,0.70
2022-09-01T09:57:17.828Z,0.70
2022-09-01T10:00:23.883Z,0.60
2022-09-01T10:03:41.648Z,0.80
2022-09-01T10:06:45.441Z,0.70
2022-09-01T10:09:49.093Z,0.50
2022-09-01T10:12:55.039Z,0.60
2022-09-01T10:16:00.446Z,0.50
2022-09-01T10:19:12.644Z,0.90
2022-09-01T10:22:15.230Z,0.40
2022-09-01T10:25:20.437Z,0.80
2022-09-01T10:28:23.905Z,0.70
2022-09-01T10:31:29.558Z,0.80
2022-09-01T10:34:38.383Z,0.70
2022-09-01T10:37:41.563Z,0.60
2022-09-01T10:40:49.641Z,0.60
2022-09-01T10:43:51.672Z,0.50
2022-09-01T10:46:59.837Z,0.60
2022-09-01T10:50:22.786Z,0.60
2022-09-01T10:53:34.061Z,1.00
2022-09-01T10:56:52.038Z,0.60
2022-09-01T10:59:57.372Z,0.70
2022-09-01T11:06:42.353Z,0.60
2022-09-01T11:10:11.738Z,0.60
2022-09-01T11:13:28.782Z,0.40
2022-09-01T11:16:51.647Z,0.80
2022-09-01T11:19:55.563Z,0.50
2022-09-01T11:23:04.967Z,0.70
2022-09-01T11:26:31.930Z,0.30
2022-09-01T11:29:55.725Z,0.90
2022-09-01T11:33:15.723Z,0.50
2022-09-01T11:36:18.309Z,0.60
2022-09-01T11:42:43.888Z,0.50
2022-09-01T11:46:06.428Z,0.60
2022-09-01T11:49:26.257Z,0.40
2022-09-01T11:52:35.266Z,0.40
2022-09-01T11:55:48.972Z,0.50
2022-09-01T11:58:51.075Z,0.40
2022-09-01T12:01:57.578Z,0.60
2022-09-01T12:05:01.701Z,0.50
2022-09-01T12:08:13.311Z,0.40
2022-09-01T12:11:21.953Z,0.60
2022-09-01T12:14:23.548Z,0.80
2022-09-01T12:17:25.660Z,0.50
2022-09-01T12:20:37.984Z,0.60
2022-09-01T12:23:42.601Z,0.60
2022-09-01T12:26:46.365Z,0.40
2022-09-01T12:29:50.415Z,0.80
2022-09-01T12:33:22.861Z,0.40
2022-09-01T12:36:35.447Z,0.40
2022-09-01T12:42:52.074Z,0.50
2022-09-01T12:45:53.796Z,0.50
2022-09-01T12:52:25.843Z,0.50
2022-09-01T12:59:14.298Z,0.60
2022-09-01T13:02:34.609Z,0.50
2022-09-01T13:05:42.593Z,0.50
2022-09-01T13:08:44.468Z,0.40
2022-09-01T13:12:06.304Z,0.40
2022-09-01T13:21:14.570Z,0.40
2022-09-01T13:24:17.317Z,0.60
2022-09-01T13:27:20.637Z,0.40
2022-09-01T13:30:27.763Z,0.30
2022-09-01T13:33:30.543Z,0.70
2022-09-01T13:36:51.458Z,0.40
2022-09-01T13:39:53.518Z,0.40
2022-09-01T13:42:55.140Z,0.40
2022-09-01T13:45:56.875Z,0.50
2022-09-01T13:49:04.853Z,0.40
2022-09-01T13:52:22.338Z,0.60
2022-09-01T13:55:26.817Z,0.60
2022-09-01T13:58:40.632Z,0.50
2022-09-01T14:01:42.307Z,0.80
2022-09-01T14:04:43.979Z,1.60
2022-09-01T14:07:46.007Z,1.30
2022-09-01T14:13:52.070Z,0.60
2022-09-01T14:16:53.713Z,0.80
2022-09-01T14:19:56.734Z,0.70
2022-09-01T14:22:58.898Z,1.00
2022-09-01T14:26:00.765Z,0.80
2022-09-01T14:29:02.491Z,0.50
2022-09-01T14:32:04.539Z,0.40
2022-09-01T14:35:20.011Z,0.50
2022-09-01T14:38:22.066Z,0.50
2022-09-01T14:41:26.445Z,0.40
2022-09-01T14:44:28.895Z,0.60
2022-09-01T14:47:31.314Z,0.50
2022-09-01T14:50:40.664Z,0.60
2022-09-01T14:53:42.383Z,0.80
2022-09-01T14:57:28.165Z,0.80
2022-09-01T15:00:09.883Z,0.60
2022-09-01T15:03:11.699Z,0.90
2022-09-01T15:06:15.897Z,0.50
2022-09-01T15:09:20.173Z,0.50
2022-09-01T15:12:22.589Z,0.60
2022-09-01T15:15:26.147Z,0.60
2022-09-01T15:18:28.263Z,0.30
2022-09-01T15:24:33.491Z,0.60
2022-09-01T15:30:45.072Z,0.50
2022-09-01T15:33:48.306Z,0.30
2022-09-01T15:36:49.850Z,0.50
2022-09-01T15:40:03.535Z,0.50
2022-09-01T15:43:12.153Z,0.50
2022-09-01T15:46:14.294Z,0.90
2022-09-01T15:52:20.422Z,0.60
2022-09-01T15:55:26.494Z,0.70
2022-09-01T15:58:39.118Z,0.50
2022-09-01T16:01:52.442Z,0.90
2022-09-01T16:05:02.230Z,1.10
2022-09-01T16:08:07.745Z,1.10
2022-09-01T16:11:11.538Z,1.10
2022-09-01T16:14:14.238Z,0.90
2022-09-01T16:17:25.473Z,1.50
2022-09-01T16:20:40.613Z,1.50
2022-09-01T16:23:48.147Z,1.20
2022-09-01T16:26:50.690Z,1.40
2022-09-01T16:29:58.156Z,1.00
2022-09-01T16:33:03.579Z,0.80
2022-09-01T16:36:30.177Z,0.90
2022-09-01T16:39:50.921Z,0.60
2022-09-01T16:43:00.760Z,0.60
2022-09-01T16:46:31.571Z,0.90
2022-09-01T16:49:52.801Z,0.90
2022-09-01T16:53:14.525Z,0.70
2022-09-01T16:56:32.788Z,0.90
2022-09-01T16:59:43.038Z,0.90
2022-09-01T17:02:59.291Z,1.10
2022-09-01T17:06:13.792Z,1.10
2022-09-01T17:09:28.953Z,1.00
2022-09-01T17:12:41.572Z,1.00
2022-09-01T17:15:49.831Z,1.00
2022-09-01T17:18:54.190Z,1.10
2022-09-01T17:22:07.806Z,0.90
2022-09-01T17:25:18.882Z,0.90
2022-09-01T17:28:33.670Z,1.40
2022-09-01T17:31:38.112Z,0.80
2022-09-01T17:35:07.058Z,0.80
2022-09-01T17:38:31.525Z,0.80
2022-09-01T17:41:59.156Z,1.00
2022-09-01T17:45:14.672Z,0.80
2022-09-01T17:48:47.745Z,1.00
2022-09-01T17:52:26.607Z,0.90
2022-09-01T17:55:42.039Z,0.80
2022-09-01T17:58:55.779Z,1.00
2022-09-01T18:02:09.618Z,1.00
2022-09-01T18:05:19.248Z,0.70
2022-09-01T18:08:39.563Z,0.90
2022-09-01T18:11:50.435Z,0.90
2022-09-01T18:15:10.321Z,0.90
2022-09-01T18:18:37.392Z,0.90
2022-09-01T18:21:49.435Z,1.00
2022-09-01T18:27:58.682Z,0.90
2022-09-01T18:31:28.881Z,0.80
2022-09-01T18:34:48.902Z,1.00
2022-09-01T18:38:00.698Z,0.90
2022-09-01T18:41:21.737Z,0.90
2022-09-01T18:45:09.542Z,1.00
2022-09-01T18:48:30.076Z,0.80
2022-09-01T18:51:55.940Z,1.10
2022-09-01T18:55:37.529Z,1.00
2022-09-01T18:59:10.030Z,1.20
2022-09-01T19:02:30.036Z,1.30
2022-09-01T19:05:45.553Z,1.20
2022-09-01T19:08:51.688Z,1.00
2022-09-01T19:12:05.226Z,1.00
2022-09-01T19:15:15.737Z,0.90
2022-09-01T19:18:25.870Z,1.00
2022-09-01T19:21:31.701Z,1.50
2022-09-01T19:24:41.149Z,1.20
2022-09-01T19:27:55.741Z,1.10
2022-09-01T19:31:09.628Z,1.20
2022-09-01T19:34:14.847Z,0.80
2022-09-01T19:37:20.810Z,1.10
2022-09-01T19:40:28.815Z,1.20
2022-09-01T19:43:35.791Z,0.90
2022-09-01T19:46:46.373Z,1.10
2022-09-01T19:50:01.336Z,1.30
2022-09-01T19:53:06.825Z,0.90
2022-09-01T19:56:24.059Z,1.10
2022-09-01T19:59:46.879Z,1.40
2022-09-01T20:03:17.386Z,1.30
2022-09-01T20:06:41.190Z,1.20
2022-09-01T20:09:53.226Z,1.20
2022-09-01T20:12:54.835Z,1.30
2022-09-01T20:16:08.632Z,1.10
2022-09-01T20:19:16.089Z,1.30
2022-09-01T20:22:24.747Z,1.20
2022-09-01T20:25:42.912Z,1.20
2022-09-01T20:29:11.450Z,1.50
2022-09-01T20:32:27.066Z,1.20
2022-09-01T20:39:11.502Z,1.30
2022-09-01T20:42:38.630Z,1.70
2022-09-01T20:45:45.109Z,1.30
2022-09-01T20:48:47.706Z,1.40
2022-09-01T20:52:04.730Z,1.70
2022-09-01T20:55:16.340Z,1.70
2022-09-01T20:59:14.840Z,1.50
2022-09-01T21:02:26.137Z,1.50
2022-09-01T21:05:51.992Z,1.60
2022-09-01T21:09:12.864Z,1.80
2022-09-01T21:12:39.543Z,1.70
2022-09-01T21:15:59.419Z,1.90
2022-09-01T21:19:04.305Z,1.90
2022-09-01T21:22:10.579Z,1.80
2022-09-01T21:25:12.133Z,1.90
2022-09-01T21:28:19.636Z,1.80
2022-09-01T21:31:25.555Z,1.70
2022-09-01T21:34:27.393Z,1.60
2022-09-01T21:37:29.086Z,1.70
2022-09-01T21:40:30.722Z,1.70
2022-09-01T21:43:35.457Z,1.80
2022-09-01T21:46:37.384Z,1.70
2022-09-01T21:49:41.878Z,1.70
2022-09-01T21:52:43.720Z,1.60
2022-09-01T21:55:47.740Z,1.70
2022-09-01T21:58:51.733Z,1.70
2022-09-01T22:01:53.751Z,1.40
2022-09-01T22:04:55.649Z,1.60
2022-09-01T22:07:57.834Z,1.50
2022-09-01T22:14:01.030Z,1.80
2022-09-01T22:17:04.416Z,1.80
2022-09-01T22:20:08.917Z,1.50
2022-09-01T22:23:11.978Z,1.60
2022-09-01T22:26:24.292Z,1.60
2022-09-01T22:32:32.850Z,1.90
2022-09-01T22:35:40.217Z,1.70
2022-09-01T22:38:41.767Z,1.90
2022-09-01T22:41:43.313Z,1.60
2022-09-01T22:44:44.974Z,1.70
2022-09-01T22:47:46.542Z,1.60
2022-09-01T22:50:49.400Z,1.70
2022-09-01T22:53:51.002Z,1.60
2022-09-01T22:56:53.368Z,1.70
2022-09-01T22:59:57.845Z,1.70
2022-09-01T23:03:00.659Z,2.30
2022-09-01T23:06:09.741Z,1.60
2022-09-01T23:09:11.937Z,1.80
2022-09-01T23:15:16.861Z,1.80
2022-09-01T23:21:25.889Z,1.60
2022-09-01T23:24:27.626Z,1.60
2022-09-01T23:27:29.244Z,1.70
2022-09-01T23:30:30.848Z,1.60
2022-09-01T23:33:32.441Z,1.80
2022-09-01T23:36:35.341Z,1.90
2022-09-01T23:39:36.876Z,1.80
2022-09-01T23:42:38.434Z,1.50
2022-09-01T23:45:43.087Z,1.80
2022-09-01T23:48:44.872Z,1.90
2022-09-01T23:51:48.403Z,1.50
2022-09-01T23:54:49.976Z,1.90
2022-09-01T23:57:51.604Z,1.30
